createdAt,value
2022-12-01T00:00:09.940Z,102096.59
2022-12-01T00:02:36.580Z,102097.84
2022-12-01T00:05:03.471Z,102097.66
2022-12-01T00:07:30.165Z,102102.00
2022-12-01T00:10:15.415Z,102100.59
2022-12-01T00:12:43.544Z,102095.47
2022-12-01T00:15:13.123Z,102089.59
2022-12-01T00:17:39.633Z,102088.56
2022-12-01T00:20:07.123Z,102084.81
2022-12-01T00:22:33.623Z,102085.03
2022-12-01T00:25:00.196Z,102087.09
2022-12-01T00:27:26.728Z,102083.53
2022-12-01T00:29:53.181Z,102078.44
2022-12-01T00:32:19.674Z,102089.56
2022-12-01T00:34:46.186Z,102085.63
2022-12-01T00:37:12.718Z,102082.53
2022-12-01T00:39:39.193Z,102092.91
2022-12-01T00:42:10.115Z,102088.53
2022-12-01T00:44:39.716Z,102078.69
2022-12-01T00:47:06.433Z,102087.31
2022-12-01T00:49:32.912Z,102083.56
2022-12-01T00:51:59.362Z,102078.66
2022-12-01T00:54:25.863Z,102089.88
2022-12-01T00:56:52.351Z,102090.41
2022-12-01T00:59:18.890Z,102084.00
2022-12-01T01:01:45.418Z,102090.53
2022-12-01T01:04:12.085Z,102095.56
2022-12-01T01:06:38.580Z,102094.97
2022-12-01T01:09:05.046Z,102092.41
2022-12-01T01:11:31.615Z,102092.69
2022-12-01T01:13:59.476Z,102095.06
2022-12-01T01:16:26.918Z,102100.91
2022-12-01T01:18:53.455Z,102095.50
2022-12-01T01:21:22.103Z,102106.47
2022-12-01T01:23:49.443Z,102107.25
2022-12-01T01:26:28.004Z,102104.72
2022-12-01T01:28:57.703Z,102109.78
2022-12-01T01:31:26.725Z,102108.75
2022-12-01T01:33:54.672Z,102107.13
2022-12-01T01:36:21.238Z,102117.47
2022-12-01T01:38:51.073Z,102116.72
2022-12-01T01:41:18.951Z,102111.03
2022-12-01T01:43:46.895Z,102118.09
2022-12-01T01:46:17.580Z,102118.19
2022-12-01T01:48:49.843Z,102126.72
2022-12-01T01:51:20.173Z,102123.81
2022-12-01T01:53:47.524Z,102125.97
2022-12-01T01:56:14.013Z,102121.75
2022-12-01T01:58:41.500Z,102124.88
2022-12-01T02:01:08.123Z,102127.75
2022-12-01T02:03:37.114Z,102117.41
2022-12-01T02:06:05.319Z,102117.81
2022-12-01T02:08:35.541Z,102121.34
2022-12-01T02:11:10.972Z,102123.19
2022-12-01T02:13:37.514Z,102112.72
2022-12-01T02:16:14.024Z,102129.81
2022-12-01T02:19:10.305Z,102120.16
2022-12-01T02:21:58.031Z,102116.41
2022-12-01T02:24:39.626Z,102120.25
2022-12-01T02:27:20.052Z,102114.06
2022-12-01T02:30:07.870Z,102123.81
2022-12-01T02:32:53.422Z,102124.03
2022-12-01T02:35:35.646Z,102119.66
2022-12-01T02:38:19.907Z,102113.97
2022-12-01T02:40:50.832Z,102111.06
2022-12-01T02:43:26.142Z,102121.44
2022-12-01T02:46:02.642Z,102115.63
2022-12-01T02:48:38.497Z,102114.66
2022-12-01T02:51:19.878Z,102118.84
2022-12-01T02:53:46.798Z,102107.19
2022-12-01T02:56:16.006Z,102108.38
2022-12-01T02:58:43.759Z,102112.88
2022-12-01T03:01:33.767Z,102114.88
2022-12-01T03:04:09.615Z,102118.34
2022-12-01T03:07:02.403Z,102115.22
2022-12-01T03:09:46.059Z,102115.94
2022-12-01T03:12:15.590Z,102109.28
2022-12-01T03:15:08.231Z,102111.16
2022-12-01T03:17:47.373Z,102109.78
2022-12-01T03:20:25.641Z,102115.94
2022-12-01T03:22:59.981Z,102110.31
2022-12-01T03:25:29.166Z,102107.63
2022-12-01T03:28:20.612Z,102117.88
2022-12-01T03:30:46.544Z,102117.59
2022-12-01T03:33:20.917Z,102109.56
2022-12-01T03:35:50.384Z,102114.69
2022-12-01T03:38:27.736Z,102114.06
2022-12-01T03:40:59.367Z,102111.34
2022-12-01T03:43:31.938Z,102112.22
2022-12-01T03:46:15.193Z,102110.09
2022-12-01T03:48:42.308Z,102114.00
2022-12-01T03:51:35.564Z,102116.00
2022-12-01T03:54:26.166Z,102114.59
2022-12-01T03:56:59.487Z,102120.16
2022-12-01T03:59:27.625Z,102123.41
2022-12-01T04:01:54.278Z,102122.56
2022-12-01T04:04:20.875Z,102130.06
2022-12-01T04:06:50.177Z,102127.25
2022-12-01T04:09:17.293Z,102127.53
2022-12-01T04:12:02.470Z,102119.47
2022-12-01T04:14:30.067Z,102130.66
2022-12-01T04:16:56.653Z,102125.06
2022-12-01T04:19:23.136Z,102126.13
2022-12-01T04:21:49.812Z,102128.25
2022-12-01T04:24:16.663Z,102122.16
2022-12-01T04:26:43.493Z,102123.31
2022-12-01T04:29:12.071Z,102126.19
2022-12-01T04:31:38.915Z,102122.16
2022-12-01T04:34:05.826Z,102125.47
2022-12-01T04:36:34.310Z,102118.75
2022-12-01T04:39:01.437Z,102118.84
2022-12-01T04:41:28.014Z,102110.56
2022-12-01T04:43:55.346Z,102118.63
2022-12-01T04:46:23.326Z,102107.13
2022-12-01T04:48:49.961Z,102115.81
2022-12-01T04:51:16.856Z,102106.22
2022-12-01T04:53:43.335Z,102112.59
2022-12-01T04:56:09.985Z,102106.16
2022-12-01T04:58:40.404Z,102113.66
2022-12-01T05:01:10.163Z,102106.78
2022-12-01T05:03:41.829Z,102116.06
2022-12-01T05:06:11.683Z,102115.53
2022-12-01T05:08:38.156Z,102112.72
2022-12-01T05:11:07.639Z,102113.66
2022-12-01T05:13:36.784Z,102115.06
2022-12-01T05:16:12.147Z,102123.97
2022-12-01T05:18:38.803Z,102108.25
2022-12-01T05:21:07.019Z,102121.66
2022-12-01T05:23:35.083Z,102110.03
2022-12-01T05:26:02.790Z,102112.78
2022-12-01T05:28:29.555Z,102117.69
2022-12-01T05:30:56.248Z,102133.31
2022-12-01T05:33:23.993Z,102122.13
2022-12-01T05:35:50.959Z,102117.59
2022-12-01T05:38:18.095Z,102124.34
2022-12-01T05:40:51.337Z,102135.22
2022-12-01T05:43:19.407Z,102128.06
2022-12-01T05:45:50.023Z,102128.06
2022-12-01T05:48:17.592Z,102132.31
2022-12-01T05:50:44.341Z,102130.72
2022-12-01T05:53:14.231Z,102132.72
2022-12-01T05:55:40.773Z,102135.44
2022-12-01T05:58:07.647Z,102132.22
2022-12-01T06:00:35.149Z,102127.44
2022-12-01T06:03:02.129Z,102137.28
2022-12-01T06:05:28.855Z,102134.50
2022-12-01T06:07:55.408Z,102135.19
2022-12-01T06:10:22.127Z,102138.72
2022-12-01T06:12:48.720Z,102135.84
2022-12-01T06:15:15.281Z,102135.31
2022-12-01T06:17:41.890Z,102149.94
2022-12-01T06:20:09.438Z,102152.34
2022-12-01T06:22:35.981Z,102154.81
2022-12-01T06:25:02.467Z,102163.16
2022-12-01T06:27:28.987Z,102158.84
2022-12-01T06:29:55.465Z,102153.84
2022-12-01T06:32:21.933Z,102155.91
2022-12-01T06:34:48.417Z,102160.56
2022-12-01T06:37:15.704Z,102155.50
2022-12-01T06:39:42.560Z,102154.72
2022-12-01T06:42:09.145Z,102159.16
2022-12-01T06:44:35.642Z,102161.41
2022-12-01T06:47:02.273Z,102163.19
2022-12-01T06:49:28.772Z,102161.91
2022-12-01T06:51:55.259Z,102159.44
2022-12-01T06:54:21.789Z,102162.16
2022-12-01T06:56:48.252Z,102173.72
2022-12-01T06:59:15.074Z,102167.34
2022-12-01T07:01:41.921Z,102164.88
2022-12-01T07:04:08.412Z,102162.78
2022-12-01T07:06:34.841Z,102169.84
2022-12-01T07:09:01.359Z,102169.94
2022-12-01T07:11:27.927Z,102169.03
2022-12-01T07:13:55.713Z,102174.09
2022-12-01T07:16:22.908Z,102175.19
2022-12-01T07:18:49.988Z,102176.56
2022-12-01T07:21:17.129Z,102174.56
2022-12-01T07:23:43.644Z,102167.97
2022-12-01T07:26:13.195Z,102173.91
2022-12-01T07:28:39.900Z,102175.16
2022-12-01T07:31:09.458Z,102178.97
2022-12-01T07:33:36.769Z,102183.59
2022-12-01T07:36:04.238Z,102172.66
2022-12-01T07:38:32.118Z,102173.38
2022-12-01T07:41:04.116Z,102176.00
2022-12-01T07:43:31.642Z,102173.09
2022-12-01T07:46:04.922Z,102178.16
2022-12-01T07:48:32.459Z,102184.09
2022-12-01T07:50:58.942Z,102193.34
2022-12-01T07:53:25.528Z,102187.69
2022-12-01T07:55:52.104Z,102186.19
2022-12-01T07:58:18.639Z,102189.53
2022-12-01T08:00:45.105Z,102192.75
2022-12-01T08:03:11.673Z,102190.81
2022-12-01T08:05:38.160Z,102192.78
2022-12-01T08:08:04.999Z,102187.41
2022-12-01T08:10:31.567Z,102190.34
2022-12-01T08:12:58.042Z,102189.22
2022-12-01T08:15:24.703Z,102194.72
2022-12-01T08:17:51.245Z,102196.16
2022-12-01T08:20:22.426Z,102206.44
2022-12-01T08:22:50.335Z,102203.50
2022-12-01T08:25:16.962Z,102199.50
2022-12-01T08:27:43.442Z,102199.88
2022-12-01T08:30:10.326Z,102200.34
2022-12-01T08:32:36.805Z,102207.13
2022-12-01T08:35:03.551Z,102205.31
2022-12-01T08:37:30.021Z,102212.91
2022-12-01T08:39:56.503Z,102207.81
2022-12-01T08:42:22.970Z,102210.63
2022-12-01T08:44:49.474Z,102207.00
2022-12-01T08:47:18.893Z,102211.25
2022-12-01T08:49:45.700Z,102203.03
2022-12-01T08:52:12.215Z,102204.72
2022-12-01T08:54:38.695Z,102215.03
2022-12-01T08:57:05.206Z,102217.16
2022-12-01T08:59:31.694Z,102219.88
2022-12-01T09:02:00.460Z,102211.16
2022-12-01T09:04:30.249Z,102216.53
2022-12-01T09:06:57.598Z,102211.34
2022-12-01T09:09:27.409Z,102218.69
2022-12-01T09:11:54.913Z,102224.13
2022-12-01T09:14:22.744Z,102227.66
2022-12-01T09:16:50.328Z,102224.78
2022-12-01T09:19:24.106Z,102229.78
2022-12-01T09:21:51.362Z,102225.56
2022-12-01T09:24:18.007Z,102225.78
2022-12-01T09:26:44.582Z,102224.16
2022-12-01T09:29:13.686Z,102241.56
2022-12-01T09:31:41.554Z,102230.78
2022-12-01T09:34:12.549Z,102227.78
2022-12-01T09:36:39.242Z,102237.91
2022-12-01T09:39:07.977Z,102222.66
2022-12-01T09:41:39.305Z,102226.22
2022-12-01T09:44:13.864Z,102238.25
2022-12-01T09:46:46.802Z,102229.69
2022-12-01T09:49:24.097Z,102231.38
2022-12-01T09:51:53.726Z,102233.66
2022-12-01T09:54:20.377Z,102215.59
2022-12-01T09:56:50.643Z,102215.41
2022-12-01T09:59:23.470Z,102218.75
2022-12-01T10:02:00.154Z,102218.31
2022-12-01T10:04:41.647Z,102222.56
2022-12-01T10:07:29.551Z,102223.84
2022-12-01T10:10:01.004Z,102227.84
2022-12-01T10:12:34.155Z,102217.84
2022-12-01T10:15:12.737Z,102211.88
2022-12-01T10:18:12.690Z,102209.88
2022-12-01T10:21:00.824Z,102219.34
2022-12-01T10:23:39.556Z,102209.91
2022-12-01T10:26:20.521Z,102213.34
2022-12-01T10:29:19.552Z,102206.59
2022-12-01T10:31:49.117Z,102205.56
2022-12-01T10:34:39.206Z,102200.78
2022-12-01T10:37:12.566Z,102204.00
2022-12-01T10:39:43.174Z,102197.78
2022-12-01T10:42:14.879Z,102203.28
2022-12-01T10:44:42.515Z,102203.28
2022-12-01T10:47:21.733Z,102202.97
2022-12-01T10:49:48.978Z,102201.13
2022-12-01T10:52:41.395Z,102202.59
2022-12-01T10:55:27.871Z,102199.88
2022-12-01T10:57:57.793Z,102203.38
2022-12-01T11:03:25.907Z,102189.56
2022-12-01T11:05:55.497Z,102193.56
2022-12-01T11:08:24.368Z,102191.66
2022-12-01T11:10:52.120Z,102191.31
2022-12-01T11:13:28.415Z,102191.09
2022-12-01T11:16:00.019Z,102190.69
2022-12-01T11:18:34.530Z,102192.91
2022-12-01T11:21:26.304Z,102182.63
2022-12-01T11:23:55.504Z,102196.97
2022-12-01T11:26:27.128Z,102194.44
2022-12-01T11:29:02.729Z,102194.97
2022-12-01T11:31:56.047Z,102196.31
2022-12-01T11:34:24.587Z,102188.94
2022-12-01T11:36:54.705Z,102187.25
2022-12-01T11:39:32.342Z,102192.88
2022-12-01T11:42:04.963Z,102176.94
2022-12-01T11:47:26.454Z,102189.59
2022-12-01T11:49:58.919Z,102191.72
2022-12-01T11:52:45.062Z,102188.75
2022-12-01T11:55:11.522Z,102176.69
2022-12-01T11:57:44.309Z,102184.28
2022-12-01T12:00:14.151Z,102180.63
2022-12-01T12:02:59.666Z,102179.97
2022-12-01T12:05:42.181Z,102174.03
2022-12-01T12:08:39.372Z,102173.28
2022-12-01T12:11:31.308Z,102187.59
2022-12-01T12:14:19.881Z,102176.66
2022-12-01T12:17:01.544Z,102172.97
2022-12-01T12:20:07.050Z,102168.03
2022-12-01T12:23:04.849Z,102171.59
2022-12-01T12:25:34.358Z,102171.53
2022-12-01T12:28:22.748Z,102174.63
2022-12-01T12:31:02.590Z,102162.72
2022-12-01T12:33:34.834Z,102164.25
2022-12-01T12:36:16.546Z,102163.84
2022-12-01T12:38:58.339Z,102163.00
2022-12-01T12:41:46.515Z,102159.69
2022-12-01T12:44:37.362Z,102162.59
2022-12-01T12:47:19.249Z,102158.25
2022-12-01T12:50:06.413Z,102157.03
2022-12-01T12:52:37.199Z,102146.31
2022-12-01T12:55:15.500Z,102154.41
2022-12-01T12:57:53.961Z,102150.03
2022-12-01T13:00:26.172Z,102153.81
2022-12-01T13:03:14.543Z,102144.25
2022-12-01T13:05:50.054Z,102150.88
2022-12-01T13:08:21.912Z,102152.84
2022-12-01T13:11:10.235Z,102138.75
2022-12-01T13:14:04.592Z,102143.63
2022-12-01T13:16:36.836Z,102137.09
2022-12-01T13:19:23.599Z,102143.03
2022-12-01T13:21:52.539Z,102133.56
2022-12-01T13:24:23.991Z,102129.41
2022-12-01T13:27:06.082Z,102131.06
2022-12-01T13:29:43.651Z,102138.09
2022-12-01T13:32:25.428Z,102126.50
2022-12-01T13:34:51.968Z,102124.19
2022-12-01T13:37:27.010Z,102120.63
2022-12-01T13:39:55.371Z,102115.47
2022-12-01T13:42:25.155Z,102121.34
2022-12-01T13:44:53.110Z,102121.84
2022-12-01T13:47:19.538Z,102120.72
2022-12-01T13:49:50.597Z,102124.44
2022-12-01T13:52:25.699Z,102112.94
2022-12-01T13:55:27.237Z,102117.16
2022-12-01T13:57:56.715Z,102120.06
2022-12-01T14:00:27.291Z,102120.69
2022-12-01T14:03:12.425Z,102121.22
2022-12-01T14:05:42.109Z,102120.50
2022-12-01T14:08:29.059Z,102124.88
2022-12-01T14:11:02.861Z,102123.00
2022-12-01T14:13:31.324Z,102131.59
2022-12-01T14:16:03.462Z,102116.78
2022-12-01T14:18:39.838Z,102116.22
2022-12-01T14:21:09.494Z,102125.47
2022-12-01T14:23:59.592Z,102125.84
2022-12-01T14:26:28.992Z,102128.28
2022-12-01T14:28:55.568Z,102119.34
2022-12-01T14:31:23.250Z,102122.66
2022-12-01T14:33:58.887Z,102128.19
2022-12-01T14:36:48.449Z,102119.31
2022-12-01T14:39:22.149Z,102120.28
2022-12-01T14:42:00.702Z,102127.66
2022-12-01T14:44:33.137Z,102130.47
2022-12-01T14:47:17.906Z,102120.06
2022-12-01T14:49:50.145Z,102112.38
2022-12-01T14:52:28.822Z,102119.03
2022-12-01T14:55:02.806Z,102117.88
2022-12-01T14:57:34.408Z,102105.81
2022-12-01T15:00:14.481Z,102112.97
2022-12-01T15:02:57.790Z,102114.16
2022-12-01T15:05:27.327Z,102111.78
2022-12-01T15:08:18.757Z,102118.84
2022-12-01T15:10:53.015Z,102113.13
2022-12-01T15:13:33.804Z,102119.16
2022-12-01T15:16:03.387Z,102110.97
2022-12-01T15:18:39.223Z,102118.81
2022-12-01T15:21:19.665Z,102115.44
2022-12-01T15:24:38.539Z,102116.09
2022-12-01T15:27:24.747Z,102111.16
2022-12-01T15:29:52.359Z,102109.69
2022-12-01T15:32:21.596Z,102115.06
2022-12-01T15:34:51.708Z,102125.75
2022-12-01T15:37:21.815Z,102118.75
2022-12-01T15:40:35.709Z,102118.91
2022-12-01T15:42:45.346Z,102122.13
2022-12-01T15:45:14.776Z,102120.91
2022-12-01T15:47:42.923Z,102126.91
2022-12-01T15:50:42.647Z,102142.28
2022-12-01T15:53:21.625Z,102136.41
2022-12-01T15:55:55.534Z,102143.28
2022-12-01T15:58:30.090Z,102155.13
2022-12-01T16:01:01.761Z,102151.13
2022-12-01T16:03:29.443Z,102155.25
2022-12-01T16:05:57.231Z,102146.28
2022-12-01T16:08:27.162Z,102159.13
2022-12-01T16:11:17.768Z,102158.69
2022-12-01T16:13:48.051Z,102152.56
2022-12-01T16:16:44.959Z,102148.97
2022-12-01T16:19:11.503Z,102148.97
2022-12-01T16:21:55.685Z,102146.66
2022-12-01T16:24:23.716Z,102149.44
2022-12-01T16:26:54.502Z,102142.56
2022-12-01T16:29:23.613Z,102137.72
2022-12-01T16:32:19.185Z,102137.63
2022-12-01T16:34:57.347Z,102131.25
2022-12-01T16:37:24.137Z,102139.53
2022-12-01T16:39:50.811Z,102135.41
2022-12-01T16:42:20.960Z,102133.06
2022-12-01T16:44:49.061Z,102132.16
2022-12-01T16:47:21.793Z,102128.84
2022-12-01T16:49:49.228Z,102132.75
2022-12-01T16:52:43.252Z,102131.44
2022-12-01T16:55:03.140Z,102136.53
2022-12-01T16:57:29.615Z,102143.47
2022-12-01T16:59:56.102Z,102145.66
2022-12-01T17:02:22.718Z,102150.69
2022-12-01T17:04:49.575Z,102151.13
2022-12-01T17:07:16.283Z,102154.06
2022-12-01T17:09:42.789Z,102147.53
2022-12-01T17:12:09.942Z,102150.09
2022-12-01T17:14:36.522Z,102160.63
2022-12-01T17:17:03.632Z,102141.56
2022-12-01T17:19:30.116Z,102155.94
2022-12-01T17:21:56.926Z,102157.56
2022-12-01T17:24:23.488Z,102157.69
2022-12-01T17:26:49.956Z,102161.66
2022-12-01T17:29:16.438Z,102167.00
2022-12-01T17:31:43.063Z,102159.25
2022-12-01T17:34:09.835Z,102162.69
2022-12-01T17:36:36.596Z,102161.63
2022-12-01T17:39:03.153Z,102161.00
2022-12-01T17:41:35.449Z,102159.50
2022-12-01T17:44:04.052Z,102171.81
2022-12-01T17:46:31.215Z,102162.28
2022-12-01T17:48:58.566Z,102163.00
2022-12-01T17:51:25.065Z,102160.56
2022-12-01T17:53:53.704Z,102156.47
2022-12-01T17:56:20.225Z,102171.09
2022-12-01T17:58:50.303Z,102169.25
2022-12-01T18:01:18.840Z,102163.25
2022-12-01T18:03:46.367Z,102163.47
2022-12-01T18:06:13.549Z,102169.53
2022-12-01T18:08:40.961Z,102163.06
2022-12-01T18:11:10.318Z,102170.72
2022-12-01T18:13:42.193Z,102163.66
2022-12-01T18:16:13.936Z,102169.22
2022-12-01T18:18:40.564Z,102168.78
2022-12-01T18:21:13.210Z,102169.66
2022-12-01T18:23:40.095Z,102171.72
2022-12-01T18:26:15.485Z,102171.88
2022-12-01T18:28:43.511Z,102168.47
2022-12-01T18:31:12.940Z,102172.22
2022-12-01T18:33:41.407Z,102172.69
2022-12-01T18:36:20.141Z,102167.53
2022-12-01T18:38:47.433Z,102166.50
2022-12-01T18:41:14.808Z,102157.03
2022-12-01T18:43:41.791Z,102156.19
2022-12-01T18:46:08.929Z,102160.88
2022-12-01T18:48:35.504Z,102157.66
2022-12-01T18:51:03.845Z,102160.28
2022-12-01T18:53:30.762Z,102161.38
2022-12-01T18:55:57.263Z,102157.44
2022-12-01T18:58:23.748Z,102164.31
2022-12-01T19:00:50.334Z,102158.78
2022-12-01T19:03:16.914Z,102163.66
2022-12-01T19:05:43.417Z,102157.88
2022-12-01T19:08:09.996Z,102156.13
2022-12-01T19:10:36.736Z,102157.94
2022-12-01T19:13:03.908Z,102158.06
2022-12-01T19:15:30.671Z,102157.03
2022-12-01T19:17:57.404Z,102146.22
2022-12-01T19:20:23.915Z,102151.81
2022-12-01T19:22:50.526Z,102145.88
2022-12-01T19:25:17.160Z,102145.09
2022-12-01T19:27:43.624Z,102155.59
2022-12-01T19:30:10.496Z,102147.38
2022-12-01T19:32:37.108Z,102143.63
2022-12-01T19:35:04.549Z,102147.47
2022-12-01T19:37:32.196Z,102145.28
2022-12-01T19:39:58.961Z,102148.78
2022-12-01T19:42:25.554Z,102141.00
2022-12-01T19:44:52.240Z,102143.63
2022-12-01T19:47:22.148Z,102147.31
2022-12-01T19:49:49.183Z,102137.97
2022-12-01T19:52:16.007Z,102146.13
2022-12-01T19:54:42.692Z,102144.34
2022-12-01T19:57:09.191Z,102147.53
2022-12-01T19:59:35.720Z,102153.00
2022-12-01T20:02:02.227Z,102147.53
2022-12-01T20:04:28.884Z,102143.63
2022-12-01T20:06:55.407Z,102156.53
2022-12-01T20:09:22.575Z,102148.38
2022-12-01T20:11:49.107Z,102150.44
2022-12-01T20:14:15.844Z,102137.91
2022-12-01T20:16:42.460Z,102140.22
2022-12-01T20:19:10.275Z,102147.66
2022-12-01T20:21:42.109Z,102146.63
2022-12-01T20:24:12.528Z,102152.97
2022-12-01T20:26:45.802Z,102150.06
2022-12-01T20:29:15.805Z,102158.75
2022-12-01T20:31:43.369Z,102157.94
2022-12-01T20:34:17.094Z,102164.56
2022-12-01T20:36:44.336Z,102154.81
2022-12-01T20:39:11.934Z,102152.63
2022-12-01T20:41:40.094Z,102157.81
2022-12-01T20:44:07.984Z,102148.38
2022-12-01T20:46:36.393Z,102152.19
2022-12-01T20:49:04.126Z,102158.44
2022-12-01T20:51:33.566Z,102153.47
2022-12-01T20:54:26.776Z,102154.56
2022-12-01T20:56:48.127Z,102153.84
2022-12-01T20:59:14.688Z,102159.19
2022-12-01T21:01:41.271Z,102153.97
2022-12-01T21:04:08.551Z,102154.50
2022-12-01T21:06:35.281Z,102150.97
2022-12-01T21:09:03.039Z,102150.94
2022-12-01T21:11:52.639Z,102155.66
2022-12-01T21:14:35.218Z,102153.25
2022-12-01T21:17:12.381Z,102148.16
2022-12-01T21:20:25.490Z,102154.50
2022-12-01T21:22:53.462Z,102149.00
2022-12-01T21:25:23.358Z,102140.81
2022-12-01T21:27:50.416Z,102139.72
2022-12-01T21:30:18.766Z,102146.28
2022-12-01T21:32:46.873Z,102148.91
2022-12-01T21:35:18.204Z,102144.09
2022-12-01T21:37:45.650Z,102145.19
2022-12-01T21:40:20.002Z,102141.44
2022-12-01T21:42:47.028Z,102132.13
2022-12-01T21:45:27.444Z,102137.75
2022-12-01T21:47:58.982Z,102134.88
2022-12-01T21:50:27.167Z,102132.31
2022-12-01T21:52:53.715Z,102135.63
2022-12-01T21:55:20.148Z,102136.25
2022-12-01T21:57:47.836Z,102131.25
2022-12-01T22:00:33.726Z,102126.91
2022-12-01T22:03:00.279Z,102127.72
2022-12-01T22:05:40.336Z,102117.13
2022-12-01T22:08:23.136Z,102119.97
2022-12-01T22:11:09.580Z,102114.75
2022-12-01T22:13:39.728Z,102112.81
2022-12-01T22:16:27.695Z,102106.88
2022-12-01T22:18:56.738Z,102104.50
2022-12-01T22:21:23.456Z,102110.19
2022-12-01T22:23:57.150Z,102107.66
2022-12-01T22:26:25.061Z,102097.03
2022-12-01T22:28:56.194Z,102098.13
2022-12-01T22:31:23.048Z,102102.50
2022-12-01T22:34:02.869Z,102096.91
2022-12-01T22:36:31.893Z,102097.97
2022-12-01T22:38:58.790Z,102091.53
2022-12-01T22:41:26.815Z,102102.19
2022-12-01T22:44:01.985Z,102102.75
2022-12-01T22:46:32.742Z,102097.84
2022-12-01T22:49:17.721Z,102095.09
2022-12-01T22:51:48.382Z,102086.78
2022-12-01T22:54:14.837Z,102092.75
2022-12-01T22:56:44.313Z,102086.88
2022-12-01T22:59:38.891Z,102087.63
2022-12-01T23:02:25.938Z,102095.06
2022-12-01T23:04:59.435Z,102093.19
2022-12-01T23:07:30.213Z,102095.59
2022-12-01T23:10:01.232Z,102092.59
2022-12-01T23:12:30.904Z,102092.38
2022-12-01T23:15:14.805Z,102083.88
2022-12-01T23:17:41.434Z,102081.50
2022-12-01T23:20:10.743Z,102086.28
2022-12-01T23:22:38.160Z,102074.84
2022-12-01T23:25:16.804Z,102071.22
2022-12-01T23:27:45.011Z,102082.97
2022-12-01T23:30:13.046Z,102086.56
2022-12-01T23:32:39.752Z,102084.00
2022-12-01T23:35:13.501Z,102081.84
2022-12-01T23:37:42.377Z,102070.94
2022-12-01T23:40:35.341Z,102067.91
2022-12-01T23:43:23.772Z,102071.94
2022-12-01T23:46:00.868Z,102074.06
2022-12-01T23:48:33.974Z,102075.69
2022-12-01T23:51:00.783Z,102073.41
2022-12-01T23:53:30.054Z,102075.00
2022-12-01T23:56:04.843Z,102070.09
2022-12-01T23:58:31.339Z,102067.03
